sensor_id;sensor_type;location;lat;lon;timestamp;temperature;humidity
36450;DHT22;22475;51.390;7.180;2023-03-19T00:02:16;13.40;90.60
36450;DHT22;22475;51.390;7.180;2023-03-19T00:04:43;13.50;90.60
36450;DHT22;22475;51.390;7.180;2023-03-19T00:07:11;13.50;90.60
36450;DHT22;22475;51.390;7.180;2023-03-19T00:09:38;13.50;90.60
36450;DHT22;22475;51.390;7.180;2023-03-19T00:12:05;13.50;90.60
36450;DHT22;22475;51.390;7.180;2023-03-19T00:14:33;13.50;90.60
36450;DHT22;22475;51.390;7.180;2023-03-19T00:17:00;13.50;90.60
36450;DHT22;22475;51.390;7.180;2023-03-19T00:19:27;13.50;90.50
36450;DHT22;22475;51.390;7.180;2023-03-19T00:21:53;13.40;90.50
36450;DHT22;22475;51.390;7.180;2023-03-19T00:24:22;13.50;90.50
36450;DHT22;22475;51.390;7.180;2023-03-19T00:26:48;13.50;90.50
36450;DHT22;22475;51.390;7.180;2023-03-19T00:29:16;13.50;90.40
36450;DHT22;22475;51.390;7.180;2023-03-19T00:31:43;13.50;90.40
36450;DHT22;22475;51.390;7.180;2023-03-19T00:34:10;13.50;90.40
36450;DHT22;22475;51.390;7.180;2023-03-19T00:36:38;13.50;90.40
36450;DHT22;22475;51.390;7.180;2023-03-19T00:39:05;13.50;90.40
36450;DHT22;22475;51.390;7.180;2023-03-19T00:41:34;13.50;90.40
36450;DHT22;22475;51.390;7.180;2023-03-19T00:44:01;13.50;90.40
36450;DHT22;22475;51.390;7.180;2023-03-19T00:46:29;13.50;90.40
36450;DHT22;22475;51.390;7.180;2023-03-19T00:48:56;13.50;90.40
36450;DHT22;22475;51.390;7.180;2023-03-19T00:51:24;13.50;90.50
36450;DHT22;22475;51.390;7.180;2023-03-19T00:53:51;13.50;90.50
36450;DHT22;22475;51.390;7.180;2023-03-19T00:56:18;13.50;90.50
36450;DHT22;22475;51.390;7.180;2023-03-19T00:58:47;13.50;90.50
36450;DHT22;22475;51.390;7.180;2023-03-19T01:01:15;13.50;90.50
36450;DHT22;22475;51.390;7.180;2023-03-19T01:03:42;13.50;90.50
36450;DHT22;22475;51.390;7.180;2023-03-19T01:06:09;13.50;90.50
36450;DHT22;22475;51.390;7.180;2023-03-19T01:08:36;13.50;90.50
36450;DHT22;22475;51.390;7.180;2023-03-19T01:11:05;13.40;90.50
36450;DHT22;22475;51.390;7.180;2023-03-19T01:13:32;13.50;90.50
36450;DHT22;22475;51.390;7.180;2023-03-19T01:16:00;13.50;90.50
36450;DHT22;22475;51.390;7.180;2023-03-19T01:18:26;13.40;90.50
36450;DHT22;22475;51.390;7.180;2023-03-19T01:20:53;13.50;90.50
36450;DHT22;22475;51.390;7.180;2023-03-19T01:23:20;13.50;90.60
36450;DHT22;22475;51.390;7.180;2023-03-19T01:25:47;13.40;90.50
36450;DHT22;22475;51.390;7.180;2023-03-19T01:28:14;13.40;90.50
36450;DHT22;22475;51.390;7.180;2023-03-19T01:30:40;13.40;90.60
36450;DHT22;22475;51.390;7.180;2023-03-19T01:33:09;13.40;90.60
36450;DHT22;22475;51.390;7.180;2023-03-19T01:35:36;13.40;90.60
36450;DHT22;22475;51.390;7.180;2023-03-19T01:38:03;13.40;90.60
36450;DHT22;22475;51.390;7.180;2023-03-19T01:40:30;13.40;90.60
36450;DHT22;22475;51.390;7.180;2023-03-19T01:43:12;13.40;90.60
36450;DHT22;22475;51.390;7.180;2023-03-19T01:45:41;13.40;90.60
36450;DHT22;22475;51.390;7.180;2023-03-19T01:48:17;13.40;90.60
36450;DHT22;22475;51.390;7.180;2023-03-19T01:50:45;13.40;90.60
36450;DHT22;22475;51.390;7.180;2023-03-19T01:53:17;13.40;90.60
36450;DHT22;22475;51.390;7.180;2023-03-19T01:55:45;13.40;90.60
36450;DHT22;22475;51.390;7.180;2023-03-19T01:58:12;13.40;90.60
36450;DHT22;22475;51.390;7.180;2023-03-19T02:00:39;13.40;90.60
36450;DHT22;22475;51.390;7.180;2023-03-19T02:03:07;13.40;90.60
36450;DHT22;22475;51.390;7.180;2023-03-19T02:05:36;13.30;90.60
36450;DHT22;22475;51.390;7.180;2023-03-19T02:08:07;13.40;90.60
36450;DHT22;22475;51.390;7.180;2023-03-19T02:10:35;13.40;90.60
36450;DHT22;22475;51.390;7.180;2023-03-19T02:13:02;13.40;90.60
36450;DHT22;22475;51.390;7.180;2023-03-19T02:15:29;13.40;90.60
36450;DHT22;22475;51.390;7.180;2023-03-19T02:17:56;13.40;90.60
36450;DHT22;22475;51.390;7.180;2023-03-19T02:20:25;13.40;90.60
36450;DHT22;22475;51.390;7.180;2023-03-19T02:23:02;13.30;90.60
36450;DHT22;22475;51.390;7.180;2023-03-19T02:25:36;13.30;90.60
36450;DHT22;22475;51.390;7.180;2023-03-19T02:28:06;13.40;90.70
36450;DHT22;22475;51.390;7.180;2023-03-19T02:30:34;13.30;90.60
36450;DHT22;22475;51.390;7.180;2023-03-19T02:33:01;13.30;90.60
36450;DHT22;22475;51.390;7.180;2023-03-19T02:35:32;13.30;90.60
36450;DHT22;22475;51.390;7.180;2023-03-19T02:38:00;13.30;90.60
36450;DHT22;22475;51.390;7.180;2023-03-19T02:40:31;13.30;90.60
36450;DHT22;22475;51.390;7.180;2023-03-19T02:43:01;13.30;90.60
36450;DHT22;22475;51.390;7.180;2023-03-19T02:45:30;13.30;90.60
36450;DHT22;22475;51.390;7.180;2023-03-19T02:47:57;13.30;90.60
36450;DHT22;22475;51.390;7.180;2023-03-19T02:50:25;13.30;90.60
36450;DHT22;22475;51.390;7.180;2023-03-19T02:52:52;13.30;90.60
36450;DHT22;22475;51.390;7.180;2023-03-19T02:55:19;13.30;91.00
36450;DHT22;22475;51.390;7.180;2023-03-19T02:57:46;13.30;90.70
36450;DHT22;22475;51.390;7.180;2023-03-19T03:00:13;13.30;90.70
36450;DHT22;22475;51.390;7.180;2023-03-19T03:02:43;13.30;90.70
36450;DHT22;22475;51.390;7.180;2023-03-19T03:05:10;13.30;90.70
36450;DHT22;22475;51.390;7.180;2023-03-19T03:07:37;13.30;90.70
36450;DHT22;22475;51.390;7.180;2023-03-19T03:10:05;13.30;90.70
36450;DHT22;22475;51.390;7.180;2023-03-19T03:12:33;13.30;90.70
36450;DHT22;22475;51.390;7.180;2023-03-19T03:14:59;13.30;90.70
36450;DHT22;22475;51.390;7.180;2023-03-19T03:17:26;13.30;90.70
36450;DHT22;22475;51.390;7.180;2023-03-19T03:19:55;13.30;90.80
36450;DHT22;22475;51.390;7.180;2023-03-19T03:22:21;13.30;90.80
36450;DHT22;22475;51.390;7.180;2023-03-19T03:24:48;13.30;90.80
36450;DHT22;22475;51.390;7.180;2023-03-19T03:27:15;13.30;90.80
36450;DHT22;22475;51.390;7.180;2023-03-19T03:29:42;13.30;90.80
36450;DHT22;22475;51.390;7.180;2023-03-19T03:32:09;13.30;90.80
36450;DHT22;22475;51.390;7.180;2023-03-19T03:34:36;13.30;90.80
36450;DHT22;22475;51.390;7.180;2023-03-19T03:37:05;13.30;90.80
36450;DHT22;22475;51.390;7.180;2023-03-19T03:39:32;13.30;90.80
36450;DHT22;22475;51.390;7.180;2023-03-19T03:42:01;13.30;90.80
36450;DHT22;22475;51.390;7.180;2023-03-19T03:44:28;13.30;90.80
36450;DHT22;22475;51.390;7.180;2023-03-19T03:46:55;13.30;90.80
36450;DHT22;22475;51.390;7.180;2023-03-19T03:49:22;13.30;90.80
36450;DHT22;22475;51.390;7.180;2023-03-19T03:51:48;13.30;90.80
36450;DHT22;22475;51.390;7.180;2023-03-19T03:54:17;13.30;90.80
36450;DHT22;22475;51.390;7.180;2023-03-19T03:56:44;13.30;90.80
36450;DHT22;22475;51.390;7.180;2023-03-19T03:59:10;13.30;90.80
36450;DHT22;22475;51.390;7.180;2023-03-19T04:01:37;13.30;90.90
36450;DHT22;22475;51.390;7.180;2023-03-19T04:04:04;13.30;90.80
36450;DHT22;22475;51.390;7.180;2023-03-19T04:06:31;13.30;90.80
36450;DHT22;22475;51.390;7.180;2023-03-19T04:08:57;13.30;90.80
36450;DHT22;22475;51.390;7.180;2023-03-19T04:11:25;13.30;90.90
36450;DHT22;22475;51.390;7.180;2023-03-19T04:13:53;13.30;90.80
36450;DHT22;22475;51.390;7.180;2023-03-19T04:16:21;13.30;90.90
36450;DHT22;22475;51.390;7.180;2023-03-19T04:18:47;13.30;90.80
36450;DHT22;22475;51.390;7.180;2023-03-19T04:21:14;13.30;90.90
36450;DHT22;22475;51.390;7.180;2023-03-19T04:23:41;13.30;90.90
36450;DHT22;22475;51.390;7.180;2023-03-19T04:26:09;13.30;90.80
36450;DHT22;22475;51.390;7.180;2023-03-19T04:28:38;13.30;91.00
36450;DHT22;22475;51.390;7.180;2023-03-19T04:31:06;13.30;90.80
36450;DHT22;22475;51.390;7.180;2023-03-19T04:33:34;13.30;90.80
36450;DHT22;22475;51.390;7.180;2023-03-19T04:36:01;13.30;90.90
36450;DHT22;22475;51.390;7.180;2023-03-19T04:38:28;13.30;90.80
36450;DHT22;22475;51.390;7.180;2023-03-19T04:40:56;13.30;90.80
36450;DHT22;22475;51.390;7.180;2023-03-19T04:43:24;13.30;90.80
36450;DHT22;22475;51.390;7.180;2023-03-19T04:45:52;13.30;90.80
36450;DHT22;22475;51.390;7.180;2023-03-19T04:48:19;13.30;90.90
36450;DHT22;22475;51.390;7.180;2023-03-19T04:50:46;13.30;90.90
36450;DHT22;22475;51.390;7.180;2023-03-19T04:53:16;13.30;90.90
36450;DHT22;22475;51.390;7.180;2023-03-19T04:55:43;13.30;90.90
36450;DHT22;22475;51.390;7.180;2023-03-19T04:58:10;13.30;90.90
36450;DHT22;22475;51.390;7.180;2023-03-19T05:00:36;13.30;90.90
36450;DHT22;22475;51.390;7.180;2023-03-19T05:03:05;13.30;90.90
36450;DHT22;22475;51.390;7.180;2023-03-19T05:05:31;13.30;90.90
36450;DHT22;22475;51.390;7.180;2023-03-19T05:07:58;13.30;90.90
36450;DHT22;22475;51.390;7.180;2023-03-19T05:10:25;13.30;90.90
36450;DHT22;22475;51.390;7.180;2023-03-19T05:12:52;13.30;90.90
36450;DHT22;22475;51.390;7.180;2023-03-19T05:15:19;13.30;90.90
36450;DHT22;22475;51.390;7.180;2023-03-19T05:17:45;13.30;90.90
36450;DHT22;22475;51.390;7.180;2023-03-19T05:20:14;13.30;90.90
36450;DHT22;22475;51.390;7.180;2023-03-19T05:22:42;13.30;90.90
36450;DHT22;22475;51.390;7.180;2023-03-19T05:25:09;13.30;90.90
36450;DHT22;22475;51.390;7.180;2023-03-19T05:27:36;13.30;90.90
36450;DHT22;22475;51.390;7.180;2023-03-19T05:30:04;13.30;90.90
36450;DHT22;22475;51.390;7.180;2023-03-19T05:32:31;13.30;90.90
36450;DHT22;22475;51.390;7.180;2023-03-19T05:34:58;13.30;90.90
36450;DHT22;22475;51.390;7.180;2023-03-19T05:37:26;13.30;90.90
36450;DHT22;22475;51.390;7.180;2023-03-19T05:39:53;13.30;90.90
36450;DHT22;22475;51.390;7.180;2023-03-19T05:42:20;13.30;90.90
36450;DHT22;22475;51.390;7.180;2023-03-19T05:44:48;13.40;90.90
36450;DHT22;22475;51.390;7.180;2023-03-19T05:47:14;13.30;90.90
36450;DHT22;22475;51.390;7.180;2023-03-19T05:49:41;13.40;90.90
36450;DHT22;22475;51.390;7.180;2023-03-19T05:52:08;13.30;90.90
36450;DHT22;22475;51.390;7.180;2023-03-19T05:54:36;13.30;90.90
36450;DHT22;22475;51.390;7.180;2023-03-19T05:57:06;13.40;90.90
36450;DHT22;22475;51.390;7.180;2023-03-19T05:59:33;13.40;90.90
36450;DHT22;22475;51.390;7.180;2023-03-19T06:02:00;13.40;90.90
36450;DHT22;22475;51.390;7.180;2023-03-19T06:04:27;13.40;90.90
36450;DHT22;22475;51.390;7.180;2023-03-19T06:06:56;13.40;90.90
36450;DHT22;22475;51.390;7.180;2023-03-19T06:09:22;13.40;90.90
36450;DHT22;22475;51.390;7.180;2023-03-19T06:11:50;13.40;90.90
36450;DHT22;22475;51.390;7.180;2023-03-19T06:14:17;13.40;90.90
36450;DHT22;22475;51.390;7.180;2023-03-19T06:16:44;13.40;90.90
36450;DHT22;22475;51.390;7.180;2023-03-19T06:19:13;13.40;90.90
36450;DHT22;22475;51.390;7.180;2023-03-19T06:21:40;13.40;90.90
36450;DHT22;22475;51.390;7.180;2023-03-19T06:24:07;13.40;90.90
36450;DHT22;22475;51.390;7.180;2023-03-19T06:26:33;13.40;90.90
36450;DHT22;22475;51.390;7.180;2023-03-19T06:29:01;13.30;90.90
36450;DHT22;22475;51.390;7.180;2023-03-19T06:31:28;13.40;90.90
36450;DHT22;22475;51.390;7.180;2023-03-19T06:33:55;13.40;90.90
36450;DHT22;22475;51.390;7.180;2023-03-19T06:36:22;13.40;90.90
36450;DHT22;22475;51.390;7.180;2023-03-19T06:38:49;13.40;90.90
36450;DHT22;22475;51.390;7.180;2023-03-19T06:41:15;13.40;90.90
36450;DHT22;22475;51.390;7.180;2023-03-19T06:43:42;13.40;90.90
36450;DHT22;22475;51.390;7.180;2023-03-19T06:46:10;13.40;90.90
36450;DHT22;22475;51.390;7.180;2023-03-19T06:48:38;13.40;90.90
36450;DHT22;22475;51.390;7.180;2023-03-19T06:51:05;13.40;90.90
36450;DHT22;22475;51.390;7.180;2023-03-19T06:53:32;13.40;90.90
36450;DHT22;22475;51.390;7.180;2023-03-19T06:55:59;13.40;90.90
36450;DHT22;22475;51.390;7.180;2023-03-19T06:58:25;13.40;90.90
36450;DHT22;22475;51.390;7.180;2023-03-19T07:00:52;13.40;90.90
36450;DHT22;22475;51.390;7.180;2023-03-19T07:03:20;13.40;90.90
36450;DHT22;22475;51.390;7.180;2023-03-19T07:05:48;13.40;90.90
36450;DHT22;22475;51.390;7.180;2023-03-19T07:08:15;13.40;90.90
36450;DHT22;22475;51.390;7.180;2023-03-19T07:10:42;13.40;90.90
36450;DHT22;22475;51.390;7.180;2023-03-19T07:13:09;13.40;90.90
36450;DHT22;22475;51.390;7.180;2023-03-19T07:15:36;13.40;90.90
36450;DHT22;22475;51.390;7.180;2023-03-19T07:18:02;13.40;90.90
36450;DHT22;22475;51.390;7.180;2023-03-19T07:20:31;13.40;90.90
36450;DHT22;22475;51.390;7.180;2023-03-19T07:22:57;13.40;90.90
36450;DHT22;22475;51.390;7.180;2023-03-19T07:25:24;13.40;90.90
36450;DHT22;22475;51.390;7.180;2023-03-19T07:27:51;13.40;90.90
36450;DHT22;22475;51.390;7.180;2023-03-19T07:30:18;13.40;90.90
36450;DHT22;22475;51.390;7.180;2023-03-19T07:32:45;13.40;90.90
36450;DHT22;22475;51.390;7.180;2023-03-19T07:35:12;13.40;90.90
36450;DHT22;22475;51.390;7.180;2023-03-19T07:37:41;13.40;90.90
36450;DHT22;22475;51.390;7.180;2023-03-19T07:40:09;13.40;90.90
36450;DHT22;22475;51.390;7.180;2023-03-19T07:42:36;13.40;90.90
36450;DHT22;22475;51.390;7.180;2023-03-19T07:45:03;13.40;91.00
36450;DHT22;22475;51.390;7.180;2023-03-19T07:47:30;13.40;91.00
36450;DHT22;22475;51.390;7.180;2023-03-19T07:49:57;13.40;91.00
36450;DHT22;22475;51.390;7.180;2023-03-19T07:52:24;13.40;91.00
36450;DHT22;22475;51.390;7.180;2023-03-19T07:54:52;13.40;91.00
36450;DHT22;22475;51.390;7.180;2023-03-19T07:57:19;13.40;91.00
36450;DHT22;22475;51.390;7.180;2023-03-19T07:59:46;13.40;91.00
36450;DHT22;22475;51.390;7.180;2023-03-19T08:02:13;13.40;91.00
36450;DHT22;22475;51.390;7.180;2023-03-19T08:04:40;13.40;91.00
36450;DHT22;22475;51.390;7.180;2023-03-19T08:07:07;13.40;91.10
36450;DHT22;22475;51.390;7.180;2023-03-19T08:09:35;13.40;91.00
36450;DHT22;22475;51.390;7.180;2023-03-19T08:12:04;13.40;91.00
36450;DHT22;22475;51.390;7.180;2023-03-19T08:14:31;13.40;91.00
36450;DHT22;22475;51.390;7.180;2023-03-19T08:16:58;13.40;91.00
36450;DHT22;22475;51.390;7.180;2023-03-19T08:19:25;13.40;91.00
36450;DHT22;22475;51.390;7.180;2023-03-19T08:21:52;13.40;91.00
36450;DHT22;22475;51.390;7.180;2023-03-19T08:24:18;13.50;91.10
36450;DHT22;22475;51.390;7.180;2023-03-19T08:26:46;13.40;91.00
36450;DHT22;22475;51.390;7.180;2023-03-19T08:29:14;13.40;91.00
36450;DHT22;22475;51.390;7.180;2023-03-19T08:31:40;13.40;91.10
36450;DHT22;22475;51.390;7.180;2023-03-19T08:34:07;13.40;91.10
36450;DHT22;22475;51.390;7.180;2023-03-19T08:36:35;13.50;91.10
36450;DHT22;22475;51.390;7.180;2023-03-19T08:39:02;13.40;91.10
36450;DHT22;22475;51.390;7.180;2023-03-19T08:41:29;13.50;91.10
36450;DHT22;22475;51.390;7.180;2023-03-19T08:43:55;13.40;91.10
36450;DHT22;22475;51.390;7.180;2023-03-19T08:46:23;13.40;91.00
36450;DHT22;22475;51.390;7.180;2023-03-19T08:48:51;13.50;91.10
36450;DHT22;22475;51.390;7.180;2023-03-19T08:51:18;13.40;91.00
36450;DHT22;22475;51.390;7.180;2023-03-19T08:53:45;13.50;91.10
36450;DHT22;22475;51.390;7.180;2023-03-19T08:56:12;13.50;91.10
36450;DHT22;22475;51.390;7.180;2023-03-19T08:58:39;13.40;91.10
36450;DHT22;22475;51.390;7.180;2023-03-19T09:01:08;13.50;91.10
36450;DHT22;22475;51.390;7.180;2023-03-19T09:03:38;13.50;91.10
36450;DHT22;22475;51.390;7.180;2023-03-19T09:06:07;13.40;91.10
36450;DHT22;22475;51.390;7.180;2023-03-19T09:08:35;13.50;91.10
36450;DHT22;22475;51.390;7.180;2023-03-19T09:11:03;13.50;91.10
36450;DHT22;22475;51.390;7.180;2023-03-19T09:13:30;13.50;91.10
36450;DHT22;22475;51.390;7.180;2023-03-19T09:15:56;13.50;91.10
36450;DHT22;22475;51.390;7.180;2023-03-19T09:18:23;13.50;91.10
36450;DHT22;22475;51.390;7.180;2023-03-19T09:20:52;13.50;91.10
36450;DHT22;22475;51.390;7.180;2023-03-19T09:23:19;13.50;91.50
36450;DHT22;22475;51.390;7.180;2023-03-19T09:25:47;13.50;91.10
36450;DHT22;22475;51.390;7.180;2023-03-19T09:28:14;13.50;91.10
36450;DHT22;22475;51.390;7.180;2023-03-19T09:30:41;13.50;91.10
36450;DHT22;22475;51.390;7.180;2023-03-19T09:33:08;13.50;91.10
36450;DHT22;22475;51.390;7.180;2023-03-19T09:35:34;13.50;91.10
36450;DHT22;22475;51.390;7.180;2023-03-19T09:38:05;13.50;91.10
36450;DHT22;22475;51.390;7.180;2023-03-19T09:40:35;13.50;91.10
36450;DHT22;22475;51.390;7.180;2023-03-19T09:43:16;13.50;91.00
36450;DHT22;22475;51.390;7.180;2023-03-19T09:45:50;13.50;91.00
36450;DHT22;22475;51.390;7.180;2023-03-19T09:48:29;13.50;91.00
36450;DHT22;22475;51.390;7.180;2023-03-19T09:50:59;13.50;90.90
36450;DHT22;22475;51.390;7.180;2023-03-19T09:53:35;13.50;90.90
36450;DHT22;22475;51.390;7.180;2023-03-19T09:56:07;13.50;90.90
36450;DHT22;22475;51.390;7.180;2023-03-19T09:58:38;13.50;90.90
36450;DHT22;22475;51.390;7.180;2023-03-19T10:01:05;13.50;90.90
36450;DHT22;22475;51.390;7.180;2023-03-19T10:03:42;13.50;90.90
36450;DHT22;22475;51.390;7.180;2023-03-19T10:06:25;13.50;90.90
36450;DHT22;22475;51.390;7.180;2023-03-19T10:09:14;13.50;90.90
36450;DHT22;22475;51.390;7.180;2023-03-19T10:11:53;13.50;90.90
36450;DHT22;22475;51.390;7.180;2023-03-19T10:15:00;13.50;90.90
36450;DHT22;22475;51.390;7.180;2023-03-19T10:17:33;13.50;90.90
36450;DHT22;22475;51.390;7.180;2023-03-19T10:20:06;13.60;90.90
36450;DHT22;22475;51.390;7.180;2023-03-19T10:22:36;13.50;90.90
36450;DHT22;22475;51.390;7.180;2023-03-19T10:25:09;13.50;90.90
36450;DHT22;22475;51.390;7.180;2023-03-19T10:27:37;13.50;90.90
36450;DHT22;22475;51.390;7.180;2023-03-19T10:30:12;13.50;90.90
36450;DHT22;22475;51.390;7.180;2023-03-19T10:32:41;13.50;90.90
36450;DHT22;22475;51.390;7.180;2023-03-19T10:35:17;13.50;90.90
36450;DHT22;22475;51.390;7.180;2023-03-19T10:37:44;13.60;91.00
36450;DHT22;22475;51.390;7.180;2023-03-19T10:40:20;13.50;91.00
36450;DHT22;22475;51.390;7.180;2023-03-19T10:43:00;13.60;91.00
36450;DHT22;22475;51.390;7.180;2023-03-19T10:45:31;13.50;91.00
36450;DHT22;22475;51.390;7.180;2023-03-19T10:48:00;13.50;90.90
36450;DHT22;22475;51.390;7.180;2023-03-19T10:50:30;13.50;90.90
36450;DHT22;22475;51.390;7.180;2023-03-19T10:53:01;13.60;91.00
36450;DHT22;22475;51.390;7.180;2023-03-19T10:55:31;13.50;91.00
36450;DHT22;22475;51.390;7.180;2023-03-19T10:58:02;13.60;90.90
36450;DHT22;22475;51.390;7.180;2023-03-19T11:00:31;13.60;90.90
36450;DHT22;22475;51.390;7.180;2023-03-19T11:03:00;13.60;90.90
36450;DHT22;22475;51.390;7.180;2023-03-19T11:05:30;13.60;91.00
36450;DHT22;22475;51.390;7.180;2023-03-19T11:07:59;13.60;91.00
36450;DHT22;22475;51.390;7.180;2023-03-19T11:10:28;13.50;90.90
36450;DHT22;22475;51.390;7.180;2023-03-19T11:12:57;13.50;90.90
36450;DHT22;22475;51.390;7.180;2023-03-19T11:15:29;13.60;91.00
36450;DHT22;22475;51.390;7.180;2023-03-19T11:17:59;13.50;91.00
36450;DHT22;22475;51.390;7.180;2023-03-19T11:20:29;13.60;91.00
36450;DHT22;22475;51.390;7.180;2023-03-19T11:22:58;13.60;91.00
36450;DHT22;22475;51.390;7.180;2023-03-19T11:25:28;13.60;91.00
36450;DHT22;22475;51.390;7.180;2023-03-19T11:28:02;13.50;91.00
36450;DHT22;22475;51.390;7.180;2023-03-19T11:30:37;13.60;91.00
36450;DHT22;22475;51.390;7.180;2023-03-19T11:33:16;13.60;91.00
36450;DHT22;22475;51.390;7.180;2023-03-19T11:35:49;13.60;91.00
36450;DHT22;22475;51.390;7.180;2023-03-19T11:38:20;13.60;91.00
36450;DHT22;22475;51.390;7.180;2023-03-19T11:40:54;13.60;91.40
36450;DHT22;22475;51.390;7.180;2023-03-19T11:43:36;13.60;91.10
36450;DHT22;22475;51.390;7.180;2023-03-19T11:46:11;13.60;91.10
36450;DHT22;22475;51.390;7.180;2023-03-19T11:49:07;13.60;91.10
36450;DHT22;22475;51.390;7.180;2023-03-19T11:51:41;13.60;91.10
36450;DHT22;22475;51.390;7.180;2023-03-19T11:54:16;13.60;91.00
36450;DHT22;22475;51.390;7.180;2023-03-19T11:56:47;13.60;91.10
36450;DHT22;22475;51.390;7.180;2023-03-19T12:02:31;13.60;91.10
36450;DHT22;22475;51.390;7.180;2023-03-19T12:05:17;13.60;91.10
36450;DHT22;22475;51.390;7.180;2023-03-19T12:07:53;13.60;91.10
36450;DHT22;22475;51.390;7.180;2023-03-19T12:10:36;13.60;91.10
36450;DHT22;22475;51.390;7.180;2023-03-19T12:13:17;13.60;91.10
36450;DHT22;22475;51.390;7.180;2023-03-19T12:15:55;13.60;91.10
36450;DHT22;22475;51.390;7.180;2023-03-19T12:18:37;13.60;91.10
36450;DHT22;22475;51.390;7.180;2023-03-19T12:21:12;13.60;91.10
36450;DHT22;22475;51.390;7.180;2023-03-19T12:23:49;13.60;91.10
36450;DHT22;22475;51.390;7.180;2023-03-19T12:26:25;13.60;91.10
36450;DHT22;22475;51.390;7.180;2023-03-19T12:29:00;13.60;91.10
36450;DHT22;22475;51.390;7.180;2023-03-19T12:31:42;13.60;91.10
36450;DHT22;22475;51.390;7.180;2023-03-19T12:34:22;13.60;91.20
36450;DHT22;22475;51.390;7.180;2023-03-19T12:36:53;13.60;91.20
36450;DHT22;22475;51.390;7.180;2023-03-19T12:39:24;13.60;91.20
36450;DHT22;22475;51.390;7.180;2023-03-19T12:41:53;13.60;91.20
36450;DHT22;22475;51.390;7.180;2023-03-19T12:44:24;13.60;91.20
36450;DHT22;22475;51.390;7.180;2023-03-19T12:46:56;13.60;91.20
36450;DHT22;22475;51.390;7.180;2023-03-19T12:49:30;13.60;91.30
36450;DHT22;22475;51.390;7.180;2023-03-19T12:52:02;13.60;91.30
36450;DHT22;22475;51.390;7.180;2023-03-19T12:54:34;13.60;91.30
36450;DHT22;22475;51.390;7.180;2023-03-19T12:57:06;13.60;91.30
36450;DHT22;22475;51.390;7.180;2023-03-19T12:59:38;13.70;91.30
36450;DHT22;22475;51.390;7.180;2023-03-19T13:02:15;13.70;91.30
36450;DHT22;22475;51.390;7.180;2023-03-19T13:04:50;13.70;91.40
36450;DHT22;22475;51.390;7.180;2023-03-19T13:07:21;13.60;91.30
36450;DHT22;22475;51.390;7.180;2023-03-19T13:09:57;13.70;91.40
36450;DHT22;22475;51.390;7.180;2023-03-19T13:12:28;13.70;91.40
36450;DHT22;22475;51.390;7.180;2023-03-19T13:14:58;13.70;91.40
36450;DHT22;22475;51.390;7.180;2023-03-19T13:17:34;13.70;91.40
36450;DHT22;22475;51.390;7.180;2023-03-19T13:20:13;13.70;91.50
36450;DHT22;22475;51.390;7.180;2023-03-19T13:22:49;13.70;91.50
36450;DHT22;22475;51.390;7.180;2023-03-19T13:25:21;13.70;91.50
36450;DHT22;22475;51.390;7.180;2023-03-19T13:27:51;13.70;91.50
36450;DHT22;22475;51.390;7.180;2023-03-19T13:30:19;13.70;91.50
36450;DHT22;22475;51.390;7.180;2023-03-19T13:32:50;13.60;91.40
36450;DHT22;22475;51.390;7.180;2023-03-19T13:35:30;13.70;91.40
36450;DHT22;22475;51.390;7.180;2023-03-19T13:38:01;13.70;91.40
36450;DHT22;22475;51.390;7.180;2023-03-19T13:40:41;13.70;91.40
36450;DHT22;22475;51.390;7.180;2023-03-19T13:46:40;13.70;91.50
36450;DHT22;22475;51.390;7.180;2023-03-19T13:49:34;13.60;91.50
36450;DHT22;22475;51.390;7.180;2023-03-19T13:54:51;13.70;91.50
36450;DHT22;22475;51.390;7.180;2023-03-19T13:57:33;13.70;91.60
36450;DHT22;22475;51.390;7.180;2023-03-19T14:03:25;13.70;91.60
36450;DHT22;22475;51.390;7.180;2023-03-19T14:05:55;13.70;91.60
36450;DHT22;22475;51.390;7.180;2023-03-19T14:08:24;13.70;91.60
36450;DHT22;22475;51.390;7.180;2023-03-19T14:10:54;13.70;91.60
36450;DHT22;22475;51.390;7.180;2023-03-19T14:13:28;13.70;91.70
36450;DHT22;22475;51.390;7.180;2023-03-19T14:16:02;13.70;91.70
36450;DHT22;22475;51.390;7.180;2023-03-19T14:18:30;13.70;91.70
36450;DHT22;22475;51.390;7.180;2023-03-19T14:21:00;13.70;91.70
36450;DHT22;22475;51.390;7.180;2023-03-19T14:23:29;13.70;91.70
36450;DHT22;22475;51.390;7.180;2023-03-19T14:26:03;13.70;91.70
36450;DHT22;22475;51.390;7.180;2023-03-19T14:28:36;13.70;91.70
36450;DHT22;22475;51.390;7.180;2023-03-19T14:31:05;13.70;91.70
36450;DHT22;22475;51.390;7.180;2023-03-19T14:33:42;13.70;91.70
36450;DHT22;22475;51.390;7.180;2023-03-19T14:36:15;13.70;91.70
36450;DHT22;22475;51.390;7.180;2023-03-19T14:38:48;13.70;91.80
36450;DHT22;22475;51.390;7.180;2023-03-19T14:41:19;13.70;91.80
36450;DHT22;22475;51.390;7.180;2023-03-19T14:44:05;13.70;91.80
36450;DHT22;22475;51.390;7.180;2023-03-19T14:46:47;13.70;91.80
36450;DHT22;22475;51.390;7.180;2023-03-19T14:52:21;13.70;91.80
36450;DHT22;22475;51.390;7.180;2023-03-19T14:54:52;13.70;91.70
36450;DHT22;22475;51.390;7.180;2023-03-19T14:57:24;13.70;91.80
36450;DHT22;22475;51.390;7.180;2023-03-19T14:59:53;13.70;91.80
36450;DHT22;22475;51.390;7.180;2023-03-19T15:05:09;13.70;91.80
36450;DHT22;22475;51.390;7.180;2023-03-19T15:07:44;13.70;91.70
36450;DHT22;22475;51.390;7.180;2023-03-19T15:10:15;13.70;91.70
36450;DHT22;22475;51.390;7.180;2023-03-19T15:13:04;13.70;91.80
36450;DHT22;22475;51.390;7.180;2023-03-19T15:15:41;13.70;91.80
36450;DHT22;22475;51.390;7.180;2023-03-19T15:18:11;13.70;91.70
36450;DHT22;22475;51.390;7.180;2023-03-19T15:20:42;13.70;91.70
36450;DHT22;22475;51.390;7.180;2023-03-19T15:23:12;13.70;91.70
36450;DHT22;22475;51.390;7.180;2023-03-19T15:25:44;13.80;91.70
36450;DHT22;22475;51.390;7.180;2023-03-19T15:28:13;13.80;91.70
36450;DHT22;22475;51.390;7.180;2023-03-19T15:30:40;13.70;91.70
36450;DHT22;22475;51.390;7.180;2023-03-19T15:33:30;13.70;91.70
36450;DHT22;22475;51.390;7.180;2023-03-19T15:35:59;13.80;91.70
36450;DHT22;22475;51.390;7.180;2023-03-19T15:38:31;13.70;91.70
36450;DHT22;22475;51.390;7.180;2023-03-19T15:41:01;13.80;91.70
36450;DHT22;22475;51.390;7.180;2023-03-19T15:43:29;13.70;91.70
36450;DHT22;22475;51.390;7.180;2023-03-19T15:45:56;13.70;91.70
36450;DHT22;22475;51.390;7.180;2023-03-19T15:48:26;13.80;91.70
36450;DHT22;22475;51.390;7.180;2023-03-19T15:50:56;13.80;91.70
36450;DHT22;22475;51.390;7.180;2023-03-19T15:53:28;13.70;91.60
36450;DHT22;22475;51.390;7.180;2023-03-19T15:55:56;13.80;91.60
36450;DHT22;22475;51.390;7.180;2023-03-19T15:58:28;13.80;91.60
36450;DHT22;22475;51.390;7.180;2023-03-19T16:00:56;13.80;91.60
36450;DHT22;22475;51.390;7.180;2023-03-19T16:03:26;13.80;91.60
36450;DHT22;22475;51.390;7.180;2023-03-19T16:05:59;13.70;91.60